Historique des mesures à Cassis (13260), France
Quotidien Résumé Janvier 19, 2018 Unités:  US    Métrique   Métrique/US
« Précédent (Jour)
Suivant (Jour) »
Quotidien Hebdomadaire Mensuel Annuel Période au choix
  Maximum: Minimum: Moyenne:
Température: 32 °F 50.7 °F 52.7 °F
Point de rosée: 32 °F 35.8 °F 40.3 °F
Humidité: Humidity % 49 % 60 %
Vitesse du vent: WindSpeedKMH mph 0.0 mph 11 mph
Rafales: WindSpeedGustKMH mph - -
Vent:- - WSW
Pression: 0 in 29.8 in -
Précipitations: 0.0 in    
Historical Graphs
 
 
Mesures pour : Janvier 19, 2018
Heure Temperature Point de rosée Pression Vent Vitesse du vent Rafales Humidité Pluie (par heure)
32 °F 32 °F 0 in Calm     Humidity % HourlyPrecipMM in
00:12 51.6 °F 43 °F 29.9 in Calm   2.1 mph 72 % 0.0 in
01:12 51.6 °F 43 °F 29.9 in WNW 9.7 mph 12.2 mph 72 % 0.0 in
02:12 52 °F 43.5 °F 29.9 in WNW 6.1 mph 6.1 mph 73 % 0.0 in
03:12 51.4 °F 43.5 °F 29.9 in Calm   5.0 mph 74 % 0.0 in
04:12 51.1 °F 43.3 °F 29.9 in Calm   3.2 mph 75 % 0.0 in
05:12 52.2 °F 44.4 °F 29.9 in NNW 10.1 mph 10.1 mph 75 % 0.0 in
06:12 51.6 °F 44.1 °F 29.9 in North 7.6 mph 7.6 mph 75 % 0.0 in
07:12 52.3 °F 44.2 °F 29.8 in NNE 7.2 mph 13.7 mph 74 % 0.0 in
08:12 52.2 °F 44.1 °F 29.9 in WNW 11.9 mph 11.9 mph 74 % 0.0 in
09:12 52.9 °F 44.1 °F 29.8 in NNW 7.6 mph 28.8 mph 72 % 0.0 in
10:12 53.2 °F 43.7 °F 29.8 in NNW 15.4 mph 28.8 mph 70 % 0.0 in
11:12 55.2 °F 41.5 °F 29.8 in WNW 39.9 mph 39.9 mph 60 % 0.0 in
12:12 56.8 °F 39.4 °F 29.8 in NNW 14.3 mph 34.9 mph 52 % 0.0 in
13:12 56.7 °F 37.8 °F 29.8 in WNW 38.9 mph 38.9 mph 49 % 0.0 in
14:12 57 °F 38.7 °F 29.8 in WNW 24.1 mph 29.4 mph 50 % 0.0 in
15:12 57.7 °F 40.3 °F 29.8 in North 11.9 mph 11.9 mph 52 % 0.0 in
16:12 57.7 °F 39.7 °F 29.8 in North 26.2 mph 26.2 mph 51 % 0.0 in
17:12 56.3 °F 37.4 °F 29.8 in NNW 6.1 mph 29.9 mph 49 % 0.0 in
18:12 55 °F 36.1 °F 29.9 in NNW 3.5 mph 19.8 mph 49 % 0.0 in
19:12 54 °F 35.8 °F 29.9 in NNW 5.5 mph 11.9 mph 50 % 0.0 in
20:12 52.9 °F 35.8 °F 29.9 in WNW 3.2 mph 5.8 mph 52 % 0.0 in
21:12 51.8 °F 36 °F 29.9 in NW 6.4 mph 9.7 mph 55 % 0.0 in
22:12 51.4 °F 36.7 °F 29.9 in NNW 9.3 mph 9.3 mph 57 % 0.0 in
23:12 50.7 °F 36.9 °F 29.9 in WNW 9.3 mph 14.8 mph 59 % 0.0 in
Observations météo à CASSIS
WU-History script by Weather Underground - 1 mb